sensor_id;sensor_type;location;lat;lon;timestamp;temperature;humidity
11188;DHT22;5650;52.700;7.306;2024-01-16T00:02:05;3.20;99.90
11188;DHT22;5650;52.700;7.306;2024-01-16T00:04:36;3.20;99.90
11188;DHT22;5650;52.700;7.306;2024-01-16T00:07:03;3.20;99.90
11188;DHT22;5650;52.700;7.306;2024-01-16T00:09:34;3.30;99.90
11188;DHT22;5650;52.700;7.306;2024-01-16T00:12:39;3.30;99.90
11188;DHT22;5650;52.700;7.306;2024-01-16T00:15:07;3.30;99.90
11188;DHT22;5650;52.700;7.306;2024-01-16T00:17:35;3.20;99.90
11188;DHT22;5650;52.700;7.306;2024-01-16T00:20:10;3.20;99.90
11188;DHT22;5650;52.700;7.306;2024-01-16T00:22:38;3.20;99.90
11188;DHT22;5650;52.700;7.306;2024-01-16T00:25:06;3.20;99.90
11188;DHT22;5650;52.700;7.306;2024-01-16T00:27:36;3.20;99.90
11188;DHT22;5650;52.700;7.306;2024-01-16T00:30:07;3.00;99.90
11188;DHT22;5650;52.700;7.306;2024-01-16T00:32:34;3.10;99.90
11188;DHT22;5650;52.700;7.306;2024-01-16T00:35:02;3.10;99.90
11188;DHT22;5650;52.700;7.306;2024-01-16T00:37:31;3.10;99.90
11188;DHT22;5650;52.700;7.306;2024-01-16T00:39:58;3.10;99.90
11188;DHT22;5650;52.700;7.306;2024-01-16T00:42:26;3.10;99.90
11188;DHT22;5650;52.700;7.306;2024-01-16T00:44:56;3.20;99.90
11188;DHT22;5650;52.700;7.306;2024-01-16T00:47:26;3.10;99.90
11188;DHT22;5650;52.700;7.306;2024-01-16T00:49:53;3.10;99.90
11188;DHT22;5650;52.700;7.306;2024-01-16T00:55:13;3.20;99.90
11188;DHT22;5650;52.700;7.306;2024-01-16T00:57:40;3.20;99.90
11188;DHT22;5650;52.700;7.306;2024-01-16T01:00:14;3.20;99.90
11188;DHT22;5650;52.700;7.306;2024-01-16T01:02:41;3.10;99.90
11188;DHT22;5650;52.700;7.306;2024-01-16T01:05:12;3.10;99.90
11188;DHT22;5650;52.700;7.306;2024-01-16T01:07:40;3.00;99.90
11188;DHT22;5650;52.700;7.306;2024-01-16T01:10:07;2.90;99.90
11188;DHT22;5650;52.700;7.306;2024-01-16T01:12:36;2.90;99.90
11188;DHT22;5650;52.700;7.306;2024-01-16T01:15:04;3.00;99.90
11188;DHT22;5650;52.700;7.306;2024-01-16T01:17:31;2.90;99.90
11188;DHT22;5650;52.700;7.306;2024-01-16T01:33:46;2.80;99.90
11188;DHT22;5650;52.700;7.306;2024-01-16T01:36:13;2.90;99.90
11188;DHT22;5650;52.700;7.306;2024-01-16T01:38:46;2.90;99.90
11188;DHT22;5650;52.700;7.306;2024-01-16T01:41:13;2.90;99.90
11188;DHT22;5650;52.700;7.306;2024-01-16T01:43:44;2.90;99.90
11188;DHT22;5650;52.700;7.306;2024-01-16T01:46:17;2.90;99.90
11188;DHT22;5650;52.700;7.306;2024-01-16T01:48:50;2.80;99.90
11188;DHT22;5650;52.700;7.306;2024-01-16T01:51:18;2.80;99.90
11188;DHT22;5650;52.700;7.306;2024-01-16T01:53:49;2.70;99.90
11188;DHT22;5650;52.700;7.306;2024-01-16T01:56:20;2.70;99.90
11188;DHT22;5650;52.700;7.306;2024-01-16T01:58:52;2.60;99.90
11188;DHT22;5650;52.700;7.306;2024-01-16T02:01:21;2.70;99.90
11188;DHT22;5650;52.700;7.306;2024-01-16T02:03:51;2.80;99.90
11188;DHT22;5650;52.700;7.306;2024-01-16T02:06:19;2.80;99.90
11188;DHT22;5650;52.700;7.306;2024-01-16T02:08:46;2.70;99.90
11188;DHT22;5650;52.700;7.306;2024-01-16T02:11:13;2.70;99.90
11188;DHT22;5650;52.700;7.306;2024-01-16T02:13:41;2.80;99.90
11188;DHT22;5650;52.700;7.306;2024-01-16T02:16:20;2.80;99.90
11188;DHT22;5650;52.700;7.306;2024-01-16T02:18:48;2.70;99.90
11188;DHT22;5650;52.700;7.306;2024-01-16T02:21:18;2.80;99.90
11188;DHT22;5650;52.700;7.306;2024-01-16T02:23:49;2.80;99.90
11188;DHT22;5650;52.700;7.306;2024-01-16T02:26:17;2.70;99.90
11188;DHT22;5650;52.700;7.306;2024-01-16T02:28:44;2.70;99.90
11188;DHT22;5650;52.700;7.306;2024-01-16T02:31:11;2.90;99.90
11188;DHT22;5650;52.700;7.306;2024-01-16T02:33:38;3.00;99.90
11188;DHT22;5650;52.700;7.306;2024-01-16T02:36:08;3.10;99.90
11188;DHT22;5650;52.700;7.306;2024-01-16T02:38:36;3.10;99.90
11188;DHT22;5650;52.700;7.306;2024-01-16T02:41:05;3.10;99.90
11188;DHT22;5650;52.700;7.306;2024-01-16T02:43:32;3.10;99.90
11188;DHT22;5650;52.700;7.306;2024-01-16T02:46:00;3.20;99.90
11188;DHT22;5650;52.700;7.306;2024-01-16T02:48:27;3.10;99.90
11188;DHT22;5650;52.700;7.306;2024-01-16T02:50:57;3.20;99.90
11188;DHT22;5650;52.700;7.306;2024-01-16T02:53:28;3.20;99.90
11188;DHT22;5650;52.700;7.306;2024-01-16T02:55:58;3.10;99.90
11188;DHT22;5650;52.700;7.306;2024-01-16T02:58:27;3.00;99.90
11188;DHT22;5650;52.700;7.306;2024-01-16T03:00:54;3.10;99.90
11188;DHT22;5650;52.700;7.306;2024-01-16T03:03:23;3.10;99.90
11188;DHT22;5650;52.700;7.306;2024-01-16T03:05:56;3.00;99.90
11188;DHT22;5650;52.700;7.306;2024-01-16T03:08:24;3.10;99.90
11188;DHT22;5650;52.700;7.306;2024-01-16T03:10:51;3.10;99.90
11188;DHT22;5650;52.700;7.306;2024-01-16T03:13:18;3.20;99.90
11188;DHT22;5650;52.700;7.306;2024-01-16T03:15:53;3.30;99.90
11188;DHT22;5650;52.700;7.306;2024-01-16T03:18:20;3.30;99.90
11188;DHT22;5650;52.700;7.306;2024-01-16T03:20:47;3.30;99.90
11188;DHT22;5650;52.700;7.306;2024-01-16T03:23:15;3.40;99.90
11188;DHT22;5650;52.700;7.306;2024-01-16T03:25:42;3.30;99.90
11188;DHT22;5650;52.700;7.306;2024-01-16T03:28:09;3.30;99.90
11188;DHT22;5650;52.700;7.306;2024-01-16T03:30:36;3.30;99.90
11188;DHT22;5650;52.700;7.306;2024-01-16T03:33:05;3.30;99.90
11188;DHT22;5650;52.700;7.306;2024-01-16T03:35:35;3.30;99.90
11188;DHT22;5650;52.700;7.306;2024-01-16T03:38:03;3.40;99.90
11188;DHT22;5650;52.700;7.306;2024-01-16T03:40:36;3.40;99.90
11188;DHT22;5650;52.700;7.306;2024-01-16T03:43:04;3.50;99.90
11188;DHT22;5650;52.700;7.306;2024-01-16T03:45:32;3.50;99.90
11188;DHT22;5650;52.700;7.306;2024-01-16T03:48:01;3.50;99.90
11188;DHT22;5650;52.700;7.306;2024-01-16T03:50:34;3.50;99.90
11188;DHT22;5650;52.700;7.306;2024-01-16T03:53:10;3.50;99.90
11188;DHT22;5650;52.700;7.306;2024-01-16T03:55:41;3.60;99.90
11188;DHT22;5650;52.700;7.306;2024-01-16T03:58:10;3.60;99.90
11188;DHT22;5650;52.700;7.306;2024-01-16T04:00:40;3.50;99.90
11188;DHT22;5650;52.700;7.306;2024-01-16T04:03:10;3.50;99.90
11188;DHT22;5650;52.700;7.306;2024-01-16T04:05:40;3.50;99.90
11188;DHT22;5650;52.700;7.306;2024-01-16T04:08:07;3.60;99.90
11188;DHT22;5650;52.700;7.306;2024-01-16T04:10:35;3.50;99.90
11188;DHT22;5650;52.700;7.306;2024-01-16T04:13:05;3.50;99.90
11188;DHT22;5650;52.700;7.306;2024-01-16T04:15:33;3.50;99.90
11188;DHT22;5650;52.700;7.306;2024-01-16T04:18:00;3.50;99.90
11188;DHT22;5650;52.700;7.306;2024-01-16T04:20:27;3.50;99.90
11188;DHT22;5650;52.700;7.306;2024-01-16T04:22:56;3.40;99.90
11188;DHT22;5650;52.700;7.306;2024-01-16T04:25:27;3.40;99.90
11188;DHT22;5650;52.700;7.306;2024-01-16T04:27:54;3.30;99.90
11188;DHT22;5650;52.700;7.306;2024-01-16T04:30:24;3.00;99.90
11188;DHT22;5650;52.700;7.306;2024-01-16T04:32:57;3.10;99.90
11188;DHT22;5650;52.700;7.306;2024-01-16T04:35:24;3.20;99.90
11188;DHT22;5650;52.700;7.306;2024-01-16T04:37:56;3.20;99.90
11188;DHT22;5650;52.700;7.306;2024-01-16T04:40:25;3.20;99.90
11188;DHT22;5650;52.700;7.306;2024-01-16T04:42:55;3.30;99.90
11188;DHT22;5650;52.700;7.306;2024-01-16T04:45:22;3.40;99.90
11188;DHT22;5650;52.700;7.306;2024-01-16T04:47:54;3.40;99.90
11188;DHT22;5650;52.700;7.306;2024-01-16T04:50:24;3.30;99.90
11188;DHT22;5650;52.700;7.306;2024-01-16T04:52:58;3.30;99.90
11188;DHT22;5650;52.700;7.306;2024-01-16T04:55:33;3.20;99.90
11188;DHT22;5650;52.700;7.306;2024-01-16T04:58:00;3.30;99.90
11188;DHT22;5650;52.700;7.306;2024-01-16T05:00:28;3.40;99.90
11188;DHT22;5650;52.700;7.306;2024-01-16T05:02:55;3.30;99.90
11188;DHT22;5650;52.700;7.306;2024-01-16T05:05:22;3.30;99.90
11188;DHT22;5650;52.700;7.306;2024-01-16T05:07:49;3.30;99.90
11188;DHT22;5650;52.700;7.306;2024-01-16T05:10:18;3.30;99.90
11188;DHT22;5650;52.700;7.306;2024-01-16T05:12:45;3.40;99.90
11188;DHT22;5650;52.700;7.306;2024-01-16T05:15:13;3.50;99.90
11188;DHT22;5650;52.700;7.306;2024-01-16T05:17:40;3.40;99.90
11188;DHT22;5650;52.700;7.306;2024-01-16T05:20:08;3.40;99.90
11188;DHT22;5650;52.700;7.306;2024-01-16T05:22:36;3.30;99.90
11188;DHT22;5650;52.700;7.306;2024-01-16T05:25:05;3.30;99.90
11188;DHT22;5650;52.700;7.306;2024-01-16T05:27:35;3.40;99.90
11188;DHT22;5650;52.700;7.306;2024-01-16T05:30:02;3.40;99.90
11188;DHT22;5650;52.700;7.306;2024-01-16T05:32:32;3.40;99.90
11188;DHT22;5650;52.700;7.306;2024-01-16T05:35:00;3.30;99.90
11188;DHT22;5650;52.700;7.306;2024-01-16T05:37:27;3.40;99.90
11188;DHT22;5650;52.700;7.306;2024-01-16T05:39:55;3.40;99.90
11188;DHT22;5650;52.700;7.306;2024-01-16T05:42:23;3.50;99.90
11188;DHT22;5650;52.700;7.306;2024-01-16T05:44:52;3.40;99.90
11188;DHT22;5650;52.700;7.306;2024-01-16T05:47:19;3.60;99.90
11188;DHT22;5650;52.700;7.306;2024-01-16T05:49:49;3.60;99.90
11188;DHT22;5650;52.700;7.306;2024-01-16T05:52:16;3.50;99.90
11188;DHT22;5650;52.700;7.306;2024-01-16T05:54:43;3.20;99.90
11188;DHT22;5650;52.700;7.306;2024-01-16T05:57:11;3.00;99.90
11188;DHT22;5650;52.700;7.306;2024-01-16T05:59:38;3.30;99.90
11188;DHT22;5650;52.700;7.306;2024-01-16T06:02:06;3.20;99.90
11188;DHT22;5650;52.700;7.306;2024-01-16T06:04:34;3.30;99.90
11188;DHT22;5650;52.700;7.306;2024-01-16T06:07:01;3.30;99.90
11188;DHT22;5650;52.700;7.306;2024-01-16T06:09:31;3.00;99.90
11188;DHT22;5650;52.700;7.306;2024-01-16T06:11:59;2.80;99.90
11188;DHT22;5650;52.700;7.306;2024-01-16T06:14:26;2.70;99.90
11188;DHT22;5650;52.700;7.306;2024-01-16T06:16:56;2.60;99.90
11188;DHT22;5650;52.700;7.306;2024-01-16T06:19:27;2.40;99.90
11188;DHT22;5650;52.700;7.306;2024-01-16T06:21:57;2.40;99.90
11188;DHT22;5650;52.700;7.306;2024-01-16T06:24:25;2.40;99.90
11188;DHT22;5650;52.700;7.306;2024-01-16T06:26:55;2.40;99.90
11188;DHT22;5650;52.700;7.306;2024-01-16T06:29:25;2.40;99.90
11188;DHT22;5650;52.700;7.306;2024-01-16T06:31:58;2.40;99.90
11188;DHT22;5650;52.700;7.306;2024-01-16T06:34:28;2.30;99.90
11188;DHT22;5650;52.700;7.306;2024-01-16T06:36:55;2.30;99.90
11188;DHT22;5650;52.700;7.306;2024-01-16T06:39:22;2.40;99.90
11188;DHT22;5650;52.700;7.306;2024-01-16T06:41:58;2.60;99.90
11188;DHT22;5650;52.700;7.306;2024-01-16T06:44:26;2.50;99.90
11188;DHT22;5650;52.700;7.306;2024-01-16T06:46:56;2.60;99.90
11188;DHT22;5650;52.700;7.306;2024-01-16T06:49:23;2.60;99.90
11188;DHT22;5650;52.700;7.306;2024-01-16T06:51:51;2.60;99.90
11188;DHT22;5650;52.700;7.306;2024-01-16T06:54:21;2.60;99.90
11188;DHT22;5650;52.700;7.306;2024-01-16T06:56:49;2.60;99.90
11188;DHT22;5650;52.700;7.306;2024-01-16T06:59:16;2.50;99.90
11188;DHT22;5650;52.700;7.306;2024-01-16T07:01:45;2.40;99.90
11188;DHT22;5650;52.700;7.306;2024-01-16T07:04:12;2.40;99.90
11188;DHT22;5650;52.700;7.306;2024-01-16T07:06:42;2.30;99.90
11188;DHT22;5650;52.700;7.306;2024-01-16T07:09:14;1.90;99.90
11188;DHT22;5650;52.700;7.306;2024-01-16T07:11:44;1.50;99.90
11188;DHT22;5650;52.700;7.306;2024-01-16T07:14:13;1.20;99.90
11188;DHT22;5650;52.700;7.306;2024-01-16T07:16:43;1.00;99.90
11188;DHT22;5650;52.700;7.306;2024-01-16T07:19:10;0.90;99.90
11188;DHT22;5650;52.700;7.306;2024-01-16T07:21:38;0.70;99.90
11188;DHT22;5650;52.700;7.306;2024-01-16T07:24:11;0.70;99.90
11188;DHT22;5650;52.700;7.306;2024-01-16T07:26:41;0.60;99.90
11188;DHT22;5650;52.700;7.306;2024-01-16T07:29:08;0.60;99.90
11188;DHT22;5650;52.700;7.306;2024-01-16T07:31:38;0.60;99.90
11188;DHT22;5650;52.700;7.306;2024-01-16T07:34:06;0.60;99.90
11188;DHT22;5650;52.700;7.306;2024-01-16T07:36:40;0.60;99.90
11188;DHT22;5650;52.700;7.306;2024-01-16T07:39:13;0.60;99.90
11188;DHT22;5650;52.700;7.306;2024-01-16T07:41:42;0.60;99.90
11188;DHT22;5650;52.700;7.306;2024-01-16T07:44:15;0.50;99.90
11188;DHT22;5650;52.700;7.306;2024-01-16T07:46:43;0.50;99.90
11188;DHT22;5650;52.700;7.306;2024-01-16T07:49:10;0.50;99.90
11188;DHT22;5650;52.700;7.306;2024-01-16T07:51:37;0.50;99.90
11188;DHT22;5650;52.700;7.306;2024-01-16T07:54:05;0.50;99.90
11188;DHT22;5650;52.700;7.306;2024-01-16T07:56:33;0.50;99.90
11188;DHT22;5650;52.700;7.306;2024-01-16T07:59:02;0.50;99.90
11188;DHT22;5650;52.700;7.306;2024-01-16T08:01:29;0.50;99.90
11188;DHT22;5650;52.700;7.306;2024-01-16T08:04:00;0.50;99.90
11188;DHT22;5650;52.700;7.306;2024-01-16T08:06:30;0.50;99.90
11188;DHT22;5650;52.700;7.306;2024-01-16T08:09:00;0.60;99.90
11188;DHT22;5650;52.700;7.306;2024-01-16T08:11:30;0.60;99.90
11188;DHT22;5650;52.700;7.306;2024-01-16T08:14:04;0.60;99.90
11188;DHT22;5650;52.700;7.306;2024-01-16T08:16:33;0.60;99.90
11188;DHT22;5650;52.700;7.306;2024-01-16T08:19:03;0.60;99.90
11188;DHT22;5650;52.700;7.306;2024-01-16T08:21:37;0.60;99.90
11188;DHT22;5650;52.700;7.306;2024-01-16T08:24:08;0.60;99.90
11188;DHT22;5650;52.700;7.306;2024-01-16T08:26:35;0.60;99.90
11188;DHT22;5650;52.700;7.306;2024-01-16T08:29:03;0.70;99.90
11188;DHT22;5650;52.700;7.306;2024-01-16T08:31:31;0.70;99.90
11188;DHT22;5650;52.700;7.306;2024-01-16T08:33:58;0.70;99.90
11188;DHT22;5650;52.700;7.306;2024-01-16T08:36:25;0.70;99.90
11188;DHT22;5650;52.700;7.306;2024-01-16T08:38:52;0.70;99.90
11188;DHT22;5650;52.700;7.306;2024-01-16T08:41:20;0.70;99.90
11188;DHT22;5650;52.700;7.306;2024-01-16T08:43:48;0.70;99.90
11188;DHT22;5650;52.700;7.306;2024-01-16T08:46:22;0.70;99.90
11188;DHT22;5650;52.700;7.306;2024-01-16T08:48:49;0.80;99.90
11188;DHT22;5650;52.700;7.306;2024-01-16T08:51:17;0.80;99.90
11188;DHT22;5650;52.700;7.306;2024-01-16T08:53:44;0.80;99.90
11188;DHT22;5650;52.700;7.306;2024-01-16T08:56:11;0.90;99.90
11188;DHT22;5650;52.700;7.306;2024-01-16T08:58:39;0.90;99.90
11188;DHT22;5650;52.700;7.306;2024-01-16T09:01:06;0.90;99.90
11188;DHT22;5650;52.700;7.306;2024-01-16T09:03:35;1.00;99.90
11188;DHT22;5650;52.700;7.306;2024-01-16T09:06:02;1.00;99.90
11188;DHT22;5650;52.700;7.306;2024-01-16T09:08:32;1.10;99.90
11188;DHT22;5650;52.700;7.306;2024-01-16T09:10:59;1.20;99.90
11188;DHT22;5650;52.700;7.306;2024-01-16T09:13:26;1.20;99.90
11188;DHT22;5650;52.700;7.306;2024-01-16T09:15:56;1.30;99.90
11188;DHT22;5650;52.700;7.306;2024-01-16T09:18:29;1.30;99.90
11188;DHT22;5650;52.700;7.306;2024-01-16T09:21:03;1.30;99.90
11188;DHT22;5650;52.700;7.306;2024-01-16T09:23:36;1.30;99.90
11188;DHT22;5650;52.700;7.306;2024-01-16T09:26:03;1.30;99.90
11188;DHT22;5650;52.700;7.306;2024-01-16T09:28:33;1.30;99.90
11188;DHT22;5650;52.700;7.306;2024-01-16T09:31:00;1.40;99.90
11188;DHT22;5650;52.700;7.306;2024-01-16T09:33:27;1.40;99.90
11188;DHT22;5650;52.700;7.306;2024-01-16T09:36:00;1.40;99.90
11188;DHT22;5650;52.700;7.306;2024-01-16T09:38:28;1.50;99.90
11188;DHT22;5650;52.700;7.306;2024-01-16T09:40:57;1.50;99.90
11188;DHT22;5650;52.700;7.306;2024-01-16T09:43:27;1.60;99.90
11188;DHT22;5650;52.700;7.306;2024-01-16T09:45:55;1.70;99.90
11188;DHT22;5650;52.700;7.306;2024-01-16T09:48:23;1.70;99.90
11188;DHT22;5650;52.700;7.306;2024-01-16T09:50:50;1.70;99.90
11188;DHT22;5650;52.700;7.306;2024-01-16T09:53:17;1.70;99.90
11188;DHT22;5650;52.700;7.306;2024-01-16T09:55:45;1.80;99.90
11188;DHT22;5650;52.700;7.306;2024-01-16T09:58:16;1.80;99.90
11188;DHT22;5650;52.700;7.306;2024-01-16T10:00:47;1.80;99.90
11188;DHT22;5650;52.700;7.306;2024-01-16T10:03:17;1.80;99.90
11188;DHT22;5650;52.700;7.306;2024-01-16T10:05:47;1.90;99.90
11188;DHT22;5650;52.700;7.306;2024-01-16T10:08:15;1.90;99.90
11188;DHT22;5650;52.700;7.306;2024-01-16T10:10:42;2.00;99.90
11188;DHT22;5650;52.700;7.306;2024-01-16T10:13:11;2.00;99.90
11188;DHT22;5650;52.700;7.306;2024-01-16T10:15:40;2.00;99.90
11188;DHT22;5650;52.700;7.306;2024-01-16T10:18:21;2.00;99.90
11188;DHT22;5650;52.700;7.306;2024-01-16T10:20:50;2.10;99.90
11188;DHT22;5650;52.700;7.306;2024-01-16T10:23:22;2.10;99.90
11188;DHT22;5650;52.700;7.306;2024-01-16T10:26:05;2.10;99.90
11188;DHT22;5650;52.700;7.306;2024-01-16T10:28:34;2.20;99.90
11188;DHT22;5650;52.700;7.306;2024-01-16T10:31:02;2.20;99.90
11188;DHT22;5650;52.700;7.306;2024-01-16T10:33:32;2.20;99.90
11188;DHT22;5650;52.700;7.306;2024-01-16T10:36:10;2.30;99.90
11188;DHT22;5650;52.700;7.306;2024-01-16T10:38:38;2.30;99.90
11188;DHT22;5650;52.700;7.306;2024-01-16T10:41:09;2.20;99.90
11188;DHT22;5650;52.700;7.306;2024-01-16T10:43:38;2.20;99.90
11188;DHT22;5650;52.700;7.306;2024-01-16T10:46:10;2.20;99.90
11188;DHT22;5650;52.700;7.306;2024-01-16T10:48:39;2.20;99.90
11188;DHT22;5650;52.700;7.306;2024-01-16T10:51:07;2.20;99.90
11188;DHT22;5650;52.700;7.306;2024-01-16T10:53:35;2.20;99.90
11188;DHT22;5650;52.700;7.306;2024-01-16T10:56:06;2.20;99.90
11188;DHT22;5650;52.700;7.306;2024-01-16T10:58:38;2.30;99.90
11188;DHT22;5650;52.700;7.306;2024-01-16T11:01:10;2.20;99.90
11188;DHT22;5650;52.700;7.306;2024-01-16T11:03:40;2.30;99.90
11188;DHT22;5650;52.700;7.306;2024-01-16T11:06:09;2.30;99.90
11188;DHT22;5650;52.700;7.306;2024-01-16T11:08:37;2.30;99.90
11188;DHT22;5650;52.700;7.306;2024-01-16T11:11:05;2.30;99.90
11188;DHT22;5650;52.700;7.306;2024-01-16T11:13:34;2.40;99.90
11188;DHT22;5650;52.700;7.306;2024-01-16T11:16:04;2.40;99.90
11188;DHT22;5650;52.700;7.306;2024-01-16T11:18:33;2.40;99.90
11188;DHT22;5650;52.700;7.306;2024-01-16T11:21:04;2.50;99.90
11188;DHT22;5650;52.700;7.306;2024-01-16T11:23:32;2.50;99.90
11188;DHT22;5650;52.700;7.306;2024-01-16T11:26:01;2.50;99.90
11188;DHT22;5650;52.700;7.306;2024-01-16T11:28:48;2.50;99.90
11188;DHT22;5650;52.700;7.306;2024-01-16T11:31:32;2.60;99.90
11188;DHT22;5650;52.700;7.306;2024-01-16T11:34:02;2.60;99.90
11188;DHT22;5650;52.700;7.306;2024-01-16T11:36:48;2.60;99.90
11188;DHT22;5650;52.700;7.306;2024-01-16T11:39:18;2.50;99.90
11188;DHT22;5650;52.700;7.306;2024-01-16T11:41:56;2.50;99.90
11188;DHT22;5650;52.700;7.306;2024-01-16T11:44:43;2.50;99.90
11188;DHT22;5650;52.700;7.306;2024-01-16T11:47:18;2.50;99.90
11188;DHT22;5650;52.700;7.306;2024-01-16T11:49:46;2.50;99.90
11188;DHT22;5650;52.700;7.306;2024-01-16T11:52:13;2.50;99.90
11188;DHT22;5650;52.700;7.306;2024-01-16T11:54:40;2.60;99.90
11188;DHT22;5650;52.700;7.306;2024-01-16T11:57:36;2.60;99.90
11188;DHT22;5650;52.700;7.306;2024-01-16T12:00:18;2.70;99.90
11188;DHT22;5650;52.700;7.306;2024-01-16T12:02:52;2.80;99.90
11188;DHT22;5650;52.700;7.306;2024-01-16T12:05:20;2.90;99.90
11188;DHT22;5650;52.700;7.306;2024-01-16T12:07:49;2.90;99.90
11188;DHT22;5650;52.700;7.306;2024-01-16T12:10:17;2.90;99.90
11188;DHT22;5650;52.700;7.306;2024-01-16T12:12:45;2.80;99.90
11188;DHT22;5650;52.700;7.306;2024-01-16T12:15:17;2.80;99.90
11188;DHT22;5650;52.700;7.306;2024-01-16T12:17:54;2.70;99.90
11188;DHT22;5650;52.700;7.306;2024-01-16T12:20:23;2.60;99.90
11188;DHT22;5650;52.700;7.306;2024-01-16T12:22:54;2.60;99.90
11188;DHT22;5650;52.700;7.306;2024-01-16T12:25:22;2.60;99.90
11188;DHT22;5650;52.700;7.306;2024-01-16T12:28:00;2.50;99.90
11188;DHT22;5650;52.700;7.306;2024-01-16T12:30:29;2.50;99.90
11188;DHT22;5650;52.700;7.306;2024-01-16T12:33:05;2.50;99.90
11188;DHT22;5650;52.700;7.306;2024-01-16T12:35:34;2.50;99.90
11188;DHT22;5650;52.700;7.306;2024-01-16T12:38:02;2.50;99.90
11188;DHT22;5650;52.700;7.306;2024-01-16T12:40:33;2.50;99.90
11188;DHT22;5650;52.700;7.306;2024-01-16T12:43:05;2.50;99.90
11188;DHT22;5650;52.700;7.306;2024-01-16T12:45:37;2.50;99.90
11188;DHT22;5650;52.700;7.306;2024-01-16T12:48:08;2.50;99.90
11188;DHT22;5650;52.700;7.306;2024-01-16T12:50:35;2.50;99.90
11188;DHT22;5650;52.700;7.306;2024-01-16T12:53:04;2.50;99.90
11188;DHT22;5650;52.700;7.306;2024-01-16T12:55:32;2.50;99.90
11188;DHT22;5650;52.700;7.306;2024-01-16T12:58:16;2.50;99.90
11188;DHT22;5650;52.700;7.306;2024-01-16T13:00:43;2.50;99.90
11188;DHT22;5650;52.700;7.306;2024-01-16T13:03:20;2.60;99.90
11188;DHT22;5650;52.700;7.306;2024-01-16T13:05:55;2.60;99.90
11188;DHT22;5650;52.700;7.306;2024-01-16T13:08:22;2.70;99.90
11188;DHT22;5650;52.700;7.306;2024-01-16T13:11:05;2.70;99.90
11188;DHT22;5650;52.700;7.306;2024-01-16T13:13:33;2.60;99.90
11188;DHT22;5650;52.700;7.306;2024-01-16T13:16:02;2.60;99.90
11188;DHT22;5650;52.700;7.306;2024-01-16T13:18:32;2.60;99.90
11188;DHT22;5650;52.700;7.306;2024-01-16T13:21:00;2.60;99.90
11188;DHT22;5650;52.700;7.306;2024-01-16T13:23:28;2.60;99.90
11188;DHT22;5650;52.700;7.306;2024-01-16T13:25:56;2.60;99.90
11188;DHT22;5650;52.700;7.306;2024-01-16T13:28:26;2.60;99.90
11188;DHT22;5650;52.700;7.306;2024-01-16T13:30:55;2.60;99.90
11188;DHT22;5650;52.700;7.306;2024-01-16T13:33:23;2.60;99.90
11188;DHT22;5650;52.700;7.306;2024-01-16T13:35:56;2.60;99.90
11188;DHT22;5650;52.700;7.306;2024-01-16T13:38:23;2.70;99.90
11188;DHT22;5650;52.700;7.306;2024-01-16T13:40:54;2.70;99.90
11188;DHT22;5650;52.700;7.306;2024-01-16T13:43:21;2.70;99.90
11188;DHT22;5650;52.700;7.306;2024-01-16T13:45:48;2.70;99.90
11188;DHT22;5650;52.700;7.306;2024-01-16T13:48:17;2.80;99.90
11188;DHT22;5650;52.700;7.306;2024-01-16T13:50:47;2.80;99.90
11188;DHT22;5650;52.700;7.306;2024-01-16T13:53:15;2.80;99.90
11188;DHT22;5650;52.700;7.306;2024-01-16T13:55:41;2.80;99.90
11188;DHT22;5650;52.700;7.306;2024-01-16T13:58:09;2.80;99.90
11188;DHT22;5650;52.700;7.306;2024-01-16T14:00:36;2.70;99.90
11188;DHT22;5650;52.700;7.306;2024-01-16T14:03:09;2.70;99.90
11188;DHT22;5650;52.700;7.306;2024-01-16T14:05:46;2.60;99.90
11188;DHT22;5650;52.700;7.306;2024-01-16T14:08:13;2.60;99.90
11188;DHT22;5650;52.700;7.306;2024-01-16T14:10:40;2.50;99.90
11188;DHT22;5650;52.700;7.306;2024-01-16T14:13:07;2.40;99.90
11188;DHT22;5650;52.700;7.306;2024-01-16T14:15:37;2.40;99.90
11188;DHT22;5650;52.700;7.306;2024-01-16T14:18:05;2.30;99.90
11188;DHT22;5650;52.700;7.306;2024-01-16T14:20:34;2.20;99.90
11188;DHT22;5650;52.700;7.306;2024-01-16T14:23:03;2.20;99.90
11188;DHT22;5650;52.700;7.306;2024-01-16T14:25:30;2.10;99.90
11188;DHT22;5650;52.700;7.306;2024-01-16T14:27:59;2.10;99.90
11188;DHT22;5650;52.700;7.306;2024-01-16T14:30:29;2.10;99.90
11188;DHT22;5650;52.700;7.306;2024-01-16T14:32:56;2.10;99.90
11188;DHT22;5650;52.700;7.306;2024-01-16T14:35:29;2.20;99.90
11188;DHT22;5650;52.700;7.306;2024-01-16T14:38:04;2.20;99.90
11188;DHT22;5650;52.700;7.306;2024-01-16T14:40:31;2.30;99.90
11188;DHT22;5650;52.700;7.306;2024-01-16T14:43:05;2.30;99.90
11188;DHT22;5650;52.700;7.306;2024-01-16T14:45:32;2.40;99.90
11188;DHT22;5650;52.700;7.306;2024-01-16T14:47:59;2.40;99.90
11188;DHT22;5650;52.700;7.306;2024-01-16T14:50:28;2.40;99.90
11188;DHT22;5650;52.700;7.306;2024-01-16T14:52:56;2.40;99.90
11188;DHT22;5650;52.700;7.306;2024-01-16T14:55:24;2.30;99.90
11188;DHT22;5650;52.700;7.306;2024-01-16T14:57:52;2.30;99.90
11188;DHT22;5650;52.700;7.306;2024-01-16T15:00:25;2.30;99.90
11188;DHT22;5650;52.700;7.306;2024-01-16T15:02:54;2.30;99.90
11188;DHT22;5650;52.700;7.306;2024-01-16T15:05:21;2.30;99.90
11188;DHT22;5650;52.700;7.306;2024-01-16T15:07:49;2.30;99.90
11188;DHT22;5650;52.700;7.306;2024-01-16T15:10:17;2.30;99.90
11188;DHT22;5650;52.700;7.306;2024-01-16T15:12:46;2.30;99.90
11188;DHT22;5650;52.700;7.306;2024-01-16T15:15:14;2.30;99.90
11188;DHT22;5650;52.700;7.306;2024-01-16T15:17:43;2.30;99.90
11188;DHT22;5650;52.700;7.306;2024-01-16T15:20:11;2.30;99.90
11188;DHT22;5650;52.700;7.306;2024-01-16T15:22:39;2.20;99.90
11188;DHT22;5650;52.700;7.306;2024-01-16T15:25:08;2.20;99.90
11188;DHT22;5650;52.700;7.306;2024-01-16T15:27:35;2.10;99.90
11188;DHT22;5650;52.700;7.306;2024-01-16T15:30:05;2.10;99.90
11188;DHT22;5650;52.700;7.306;2024-01-16T15:32:34;2.10;99.90
11188;DHT22;5650;52.700;7.306;2024-01-16T15:35:02;2.00;99.90
11188;DHT22;5650;52.700;7.306;2024-01-16T15:37:32;2.00;99.90
11188;DHT22;5650;52.700;7.306;2024-01-16T15:39:59;2.00;99.90
11188;DHT22;5650;52.700;7.306;2024-01-16T15:42:27;2.00;99.90
11188;DHT22;5650;52.700;7.306;2024-01-16T15:44:54;2.00;99.90
11188;DHT22;5650;52.700;7.306;2024-01-16T15:47:23;2.00;99.90
11188;DHT22;5650;52.700;7.306;2024-01-16T15:49:50;2.00;99.90
11188;DHT22;5650;52.700;7.306;2024-01-16T15:52:17;2.00;99.90
11188;DHT22;5650;52.700;7.306;2024-01-16T15:54:47;1.90;99.90
11188;DHT22;5650;52.700;7.306;2024-01-16T15:57:17;1.90;99.90
11188;DHT22;5650;52.700;7.306;2024-01-16T15:59:47;1.80;99.90
11188;DHT22;5650;52.700;7.306;2024-01-16T16:02:17;1.90;99.90
11188;DHT22;5650;52.700;7.306;2024-01-16T16:04:47;2.30;99.90
11188;DHT22;5650;52.700;7.306;2024-01-16T16:07:14;2.90;99.90
11188;DHT22;5650;52.700;7.306;2024-01-16T16:09:41;3.20;99.90
11188;DHT22;5650;52.700;7.306;2024-01-16T16:12:09;3.40;99.90
11188;DHT22;5650;52.700;7.306;2024-01-16T16:14:36;3.60;99.90
11188;DHT22;5650;52.700;7.306;2024-01-16T16:17:05;3.80;99.90
11188;DHT22;5650;52.700;7.306;2024-01-16T16:19:34;3.90;99.90
11188;DHT22;5650;52.700;7.306;2024-01-16T16:22:04;3.90;99.90
11188;DHT22;5650;52.700;7.306;2024-01-16T16:24:32;4.00;99.90
11188;DHT22;5650;52.700;7.306;2024-01-16T16:27:00;4.30;99.90
11188;DHT22;5650;52.700;7.306;2024-01-16T16:29:30;4.40;99.90
11188;DHT22;5650;52.700;7.306;2024-01-16T16:31:57;4.50;99.90
11188;DHT22;5650;52.700;7.306;2024-01-16T16:34:24;4.40;99.90